Time;durP1;ratioP1;P1;durP2;ratioP2;P2;SDS_P1;SDS_P2;PMS_P1;PMS_P2;Temp;Humidity;BMP_temperature;BMP_pressure;BME280_temperature;BME280_humidity;BME280_pressure;Samples;Min_cycle;Max_cycle;Signal;HPM_P1;HPM_P2
2023/04/24 00:00:17;;;;;;;0.30;0.30;;;10.70;99.90;;;;;;5035767;28;20055;-83
2023/04/24 00:02:46;;;;;;;0.30;0.30;;;10.70;99.90;;;;;;5020440;28;20045;-83
2023/04/24 00:05:14;;;;;;;0.20;0.20;;;10.70;99.90;;;;;;5019965;28;20045;-84
2023/04/24 00:07:44;;;;;;;0.50;0.50;;;10.70;99.90;;;;;;5036593;28;20049;-82
2023/04/24 00:10:10;;;;;;;0.35;0.35;;;10.70;99.90;;;;;;5038077;28;20049;-84
2023/04/24 00:12:36;;;;;;;0.30;0.30;;;10.70;99.90;;;;;;5037428;28;20041;-83
2023/04/24 00:15:02;;;;;;;0.30;0.30;;;10.70;99.90;;;;;;5035284;28;20128;-85
2023/04/24 00:17:28;;;;;;;0.30;0.30;;;10.70;99.90;;;;;;5019472;28;20157;-84
2023/04/24 00:19:58;;;;;;;0.50;0.50;;;10.70;99.90;;;;;;5035999;28;20080;-84
2023/04/24 00:22:28;;;;;;;0.40;0.40;;;10.70;99.90;;;;;;5020039;28;20052;-84
2023/04/24 00:24:59;;;;;;;0.30;0.30;;;10.70;99.90;;;;;;5036756;28;20050;-85
2023/04/24 00:27:25;;;;;;;0.20;0.20;;;10.70;99.90;;;;;;5036379;28;20042;-83
2023/04/24 00:29:51;;;;;;;0.40;0.40;;;10.60;99.90;;;;;;5036374;28;20049;-84
2023/04/24 00:32:17;;;;;;;0.38;0.38;;;10.60;99.90;;;;;;5036227;28;20065;-83
2023/04/24 00:34:43;;;;;;;0.20;0.20;;;10.60;99.90;;;;;;5035832;28;20032;-83
2023/04/24 00:37:08;;;;;;;0.45;0.45;;;10.60;99.90;;;;;;5035860;28;20045;-84
2023/04/24 00:39:34;;;;;;;0.30;0.30;;;10.60;99.90;;;;;;5035949;28;20065;-84
2023/04/24 00:42:01;;;;;;;0.30;0.30;;;10.60;99.90;;;;;;5018584;28;20047;-83
2023/04/24 00:44:27;;;;;;;0.40;0.40;;;10.50;99.90;;;;;;5035578;28;20045;-82
2023/04/24 00:46:54;;;;;;;0.40;0.40;;;10.50;99.90;;;;;;5035772;28;20041;-84
2023/04/24 00:49:23;;;;;;;0.32;0.32;;;10.50;99.90;;;;;;5036469;28;20049;-83
2023/04/24 00:51:50;;;;;;;0.40;0.40;;;10.40;99.90;;;;;;5035852;28;20124;-84
2023/04/24 00:54:17;;;;;;;0.40;0.40;;;10.30;99.90;;;;;;5052656;28;20396;-84
2023/04/24 00:56:44;;;;;;;0.45;0.45;;;10.20;99.90;;;;;;5052085;28;20349;-83
2023/04/24 00:59:13;;;;;;;0.40;0.40;;;10.20;99.90;;;;;;5036033;28;20045;-85
2023/04/24 01:01:43;;;;;;;0.30;0.30;;;10.10;99.90;;;;;;5036572;28;20046;-82
2023/04/24 01:04:10;;;;;;;0.40;0.40;;;10.10;99.90;;;;;;5052379;28;20531;-85
2023/04/24 01:06:39;;;;;;;0.30;0.30;;;10.10;99.90;;;;;;5035015;28;20053;-83
2023/04/24 01:09:05;;;;;;;0.30;0.30;;;10.00;99.90;;;;;;5034579;28;20049;-85
2023/04/24 01:11:31;;;;;;;0.47;0.47;;;10.00;99.90;;;;;;5017538;28;20177;-83
2023/04/24 01:13:57;;;;;;;0.40;0.40;;;10.00;99.90;;;;;;5035124;28;20057;-81
2023/04/24 01:16:23;;;;;;;0.32;0.32;;;10.00;99.90;;;;;;5018501;28;20086;-84
2023/04/24 01:18:48;;;;;;;0.30;0.30;;;10.00;99.90;;;;;;5034733;28;20053;-83
2023/04/24 01:21:16;;;;;;;0.40;0.40;;;10.00;99.90;;;;;;5035471;28;20357;-85
2023/04/24 01:23:44;;;;;;;0.30;0.30;;;10.00;99.90;;;;;;5033858;28;20053;-82
2023/04/24 01:26:09;;;;;;;0.32;0.32;;;10.00;99.90;;;;;;5035208;28;20053;-83
2023/04/24 01:28:36;;;;;;;0.40;0.40;;;9.90;99.90;;;;;;5036172;28;20048;-82
2023/04/24 01:31:01;;;;;;;0.50;0.50;;;9.90;99.90;;;;;;5035733;28;20120;-83
2023/04/24 01:33:27;;;;;;;0.30;0.30;;;9.90;99.90;;;;;;5034847;28;20519;-83
2023/04/24 01:35:53;;;;;;;0.40;0.40;;;9.90;99.90;;;;;;5051851;28;20053;-84
2023/04/24 01:38:19;;;;;;;;;;;9.90;99.90;;;;;;5052000;28;20472;-84
2023/04/24 01:40:45;;;;;;;0.43;0.43;;;9.90;99.90;;;;;;5035053;28;19921;-83
2023/04/24 01:43:11;;;;;;;0.40;0.40;;;9.90;99.90;;;;;;5035026;28;20045;-82
2023/04/24 01:45:37;;;;;;;0.40;0.40;;;9.90;99.90;;;;;;5034432;28;20049;-82
2023/04/24 01:48:03;;;;;;;0.40;0.40;;;9.80;99.90;;;;;;5035113;28;20037;-82
2023/04/24 01:50:29;;;;;;;0.40;0.40;;;9.80;99.90;;;;;;5051197;28;20068;-82
2023/04/24 01:52:55;;;;;;;0.50;0.50;;;9.80;99.90;;;;;;5034766;28;20045;-84
2023/04/24 01:55:20;;;;;;;;;;;9.80;99.90;;;;;;5034559;28;20057;-83
2023/04/24 01:57:46;;;;;;;0.50;0.50;;;9.70;99.90;;;;;;5034152;28;19928;-85
2023/04/24 02:00:12;;;;;;;0.50;0.50;;;9.70;99.90;;;;;;5034491;28;20045;-82
2023/04/24 02:02:40;;;;;;;0.40;0.40;;;9.70;99.90;;;;;;5034875;28;20053;-84
2023/04/24 02:05:07;;;;;;;0.50;0.50;;;9.70;99.90;;;;;;5018257;28;20048;-84
2023/04/24 02:07:32;;;;;;;0.50;0.50;;;9.70;99.90;;;;;;5034885;28;20412;-84
2023/04/24 02:09:58;;;;;;;0.45;0.45;;;9.60;99.90;;;;;;5035582;28;20052;-84
2023/04/24 02:12:24;;;;;;;0.40;0.40;;;9.60;99.90;;;;;;5034922;28;20054;-84
2023/04/24 02:14:50;;;;;;;0.45;0.45;;;9.60;99.90;;;;;;5035104;28;20049;-83
2023/04/24 02:17:16;;;;;;;;;;;9.70;99.90;;;;;;5034295;28;20049;-85
2023/04/24 02:19:42;;;;;;;0.30;0.30;;;9.70;99.90;;;;;;5018491;28;20291;-84
2023/04/24 02:22:08;;;;;;;0.50;0.50;;;9.60;99.90;;;;;;5034879;28;20046;-83
2023/04/24 02:24:33;;;;;;;0.38;0.38;;;9.60;99.90;;;;;;5038062;28;20496;-83
2023/04/24 02:27:00;;;;;;;0.40;0.40;;;9.60;99.90;;;;;;5039008;28;20045;-83
2023/04/24 02:29:25;;;;;;;;;;;9.60;99.90;;;;;;5039428;28;20051;-84
2023/04/24 02:31:51;;;;;;;0.30;0.30;;;9.60;99.90;;;;;;5038103;28;19956;-83
2023/04/24 02:34:16;;;;;;;0.40;0.40;;;9.60;99.90;;;;;;5021723;28;20041;-82
2023/04/24 02:36:42;;;;;;;0.45;0.45;;;9.60;99.90;;;;;;5038812;28;20049;-83
2023/04/24 02:39:08;;;;;;;0.40;0.40;;;9.60;99.90;;;;;;5038747;28;20045;-83
2023/04/24 02:41:35;;;;;;;0.55;0.55;;;9.70;99.90;;;;;;5038167;28;20042;-84
2023/04/24 02:44:01;;;;;;;0.30;0.30;;;9.60;99.90;;;;;;5038098;28;20053;-82
2023/04/24 02:46:27;;;;;;;0.50;0.50;;;9.60;99.90;;;;;;5038610;28;20131;-84
2023/04/24 02:48:52;;;;;;;0.45;0.45;;;9.70;99.90;;;;;;5038110;28;20137;-82
2023/04/24 02:51:18;;;;;;;0.50;0.50;;;9.70;99.90;;;;;;5022725;28;20125;-84
2023/04/24 02:53:44;;;;;;;0.40;0.40;;;9.70;99.90;;;;;;5039902;28;20105;-83
2023/04/24 02:56:12;;;;;;;0.40;0.40;;;9.70;99.90;;;;;;5037977;28;20091;-84
2023/04/24 02:58:38;;;;;;;0.40;0.40;;;9.70;99.90;;;;;;5021572;28;20477;-83
2023/04/24 03:01:04;;;;;;;0.50;0.50;;;9.70;99.90;;;;;;5020130;28;20064;-84
2023/04/24 03:03:30;;;;;;;0.40;0.40;;;9.70;99.90;;;;;;5037591;28;20476;-84
2023/04/24 03:05:56;;;;;;;0.50;0.50;;;9.70;99.90;;;;;;5038441;28;20103;-82
2023/04/24 03:08:22;;;;;;;0.50;0.50;;;9.70;99.90;;;;;;5038493;28;20053;-83
2023/04/24 03:10:48;;;;;;;0.43;0.43;;;9.80;99.90;;;;;;5054191;28;20180;-84
2023/04/24 03:13:16;;;;;;;0.40;0.40;;;9.80;99.90;;;;;;5038224;28;20053;-83
2023/04/24 03:15:42;;;;;;;0.30;0.30;;;9.80;99.90;;;;;;5021531;28;20110;-83
2023/04/24 03:18:07;;;;;;;0.30;0.30;;;9.80;99.90;;;;;;5039297;28;20439;-82
2023/04/24 03:20:33;;;;;;;0.40;0.40;;;9.80;99.90;;;;;;5021586;28;20053;-80
2023/04/24 03:22:59;;;;;;;0.40;0.40;;;9.90;99.90;;;;;;5036305;28;20103;-84
2023/04/24 03:25:25;;;;;;;0.40;0.40;;;9.80;99.90;;;;;;5037218;28;20057;-82
2023/04/24 03:27:51;;;;;;;0.50;0.50;;;9.80;99.90;;;;;;5054127;28;20533;-82
2023/04/24 03:30:17;;;;;;;0.50;0.50;;;9.80;99.90;;;;;;5037695;28;20037;-82
2023/04/24 03:32:42;;;;;;;0.40;0.40;;;9.80;99.90;;;;;;5022132;28;20100;-83
2023/04/24 03:35:09;;;;;;;0.55;0.55;;;9.90;99.90;;;;;;5038794;28;20056;-83
2023/04/24 03:37:35;;;;;;;0.40;0.40;;;9.90;99.90;;;;;;5023022;28;20049;-82
2023/04/24 03:40:01;;;;;;;0.47;0.47;;;9.90;99.90;;;;;;5039056;28;20052;-82
2023/04/24 03:42:27;;;;;;;0.40;0.40;;;9.90;99.90;;;;;;5040576;28;20042;-83
2023/04/24 03:44:52;;;;;;;0.30;0.30;;;9.90;99.90;;;;;;5037280;28;20364;-81
2023/04/24 03:47:18;;;;;;;0.47;0.47;;;9.80;99.90;;;;;;5037411;28;20045;-83
2023/04/24 03:49:44;;;;;;;0.40;0.40;;;9.90;99.90;;;;;;5036437;28;20137;-83
2023/04/24 03:52:09;;;;;;;0.47;0.47;;;9.90;99.90;;;;;;5036265;28;20053;-82
2023/04/24 03:54:35;;;;;;;0.50;0.50;;;9.90;99.90;;;;;;5037721;28;20057;-83
2023/04/24 03:57:01;;;;;;;0.30;0.30;;;9.90;99.90;;;;;;5020322;28;20053;-81
2023/04/24 03:59:27;;;;;;;0.50;0.50;;;9.80;99.90;;;;;;5036568;28;20079;-83
2023/04/24 04:01:52;;;;;;;0.50;0.50;;;9.90;99.90;;;;;;5036435;28;20046;-83
2023/04/24 04:04:18;;;;;;;0.40;0.40;;;9.90;99.90;;;;;;5035876;28;20401;-81
2023/04/24 04:06:44;;;;;;;0.38;0.38;;;9.80;99.90;;;;;;5035867;28;20192;-83
2023/04/24 04:09:10;;;;;;;0.40;0.40;;;9.80;99.90;;;;;;5019672;28;20061;-81
2023/04/24 04:11:36;;;;;;;0.30;0.30;;;9.80;99.90;;;;;;5037595;28;20053;-83
2023/04/24 04:14:03;;;;;;;0.40;0.40;;;9.80;99.90;;;;;;5053527;28;20053;-82
2023/04/24 04:16:29;;;;;;;0.50;0.50;;;9.80;99.90;;;;;;5037479;28;20088;-82
2023/04/24 04:18:55;;;;;;;0.40;0.40;;;9.80;99.90;;;;;;5037904;28;20053;-81
2023/04/24 04:21:20;;;;;;;;;;;9.80;99.90;;;;;;5037385;28;20045;-81
2023/04/24 04:23:46;;;;;;;0.30;0.30;;;9.80;99.90;;;;;;5035532;28;19970;-83
2023/04/24 04:26:14;;;;;;;0.30;0.30;;;9.80;99.90;;;;;;5020110;28;20472;-82
2023/04/24 04:28:40;;;;;;;0.40;0.40;;;9.80;99.90;;;;;;5018424;28;20471;-84
2023/04/24 04:31:07;;;;;;;0.40;0.40;;;9.80;99.90;;;;;;5036482;28;20045;-83
2023/04/24 04:33:33;;;;;;;0.40;0.40;;;9.80;99.90;;;;;;5036019;28;20053;-84
2023/04/24 04:35:59;;;;;;;0.47;0.47;;;9.80;99.90;;;;;;5035831;28;20049;-81
2023/04/24 04:38:29;;;;;;;0.50;0.50;;;9.80;99.90;;;;;;5036026;28;20511;-83
2023/04/24 04:40:56;;;;;;;0.30;0.30;;;9.80;99.90;;;;;;5036551;28;20041;-83
2023/04/24 04:43:23;;;;;;;0.50;0.50;;;9.80;99.90;;;;;;5051816;28;20492;-83
2023/04/24 04:45:51;;;;;;;0.40;0.40;;;9.80;99.90;;;;;;5035620;28;20029;-84
2023/04/24 04:48:17;;;;;;;0.40;0.40;;;9.80;99.90;;;;;;5051630;28;20054;-84
2023/04/24 04:50:43;;;;;;;0.43;0.43;;;9.70;99.90;;;;;;5034774;28;20160;-86
2023/04/24 04:53:09;;;;;;;0.40;0.40;;;9.70;99.90;;;;;;5034949;28;20429;-84
2023/04/24 04:55:35;;;;;;;0.43;0.43;;;9.70;99.90;;;;;;5036119;28;20184;-85
2023/04/24 04:58:01;;;;;;;0.38;0.38;;;9.70;99.90;;;;;;5036694;28;20049;-82
2023/04/24 05:00:28;;;;;;;0.40;0.40;;;9.70;99.90;;;;;;5035070;28;20462;-84
2023/04/24 05:02:54;;;;;;;0.40;0.40;;;9.70;99.90;;;;;;5034212;28;20128;-84
2023/04/24 05:05:20;;;;;;;0.40;0.40;;;9.70;99.90;;;;;;5034376;28;20212;-85
2023/04/24 05:07:47;;;;;;;0.40;0.40;;;9.70;99.90;;;;;;5034902;28;20041;-83
2023/04/24 05:10:12;;;;;;;0.50;0.50;;;9.70;99.90;;;;;;5035891;28;20045;-83
2023/04/24 05:12:38;;;;;;;0.43;0.43;;;9.70;99.90;;;;;;5036008;28;20464;-84
2023/04/24 05:15:04;;;;;;;0.50;0.50;;;9.70;99.90;;;;;;5000847;28;20482;-82
2023/04/24 05:17:30;;;;;;;;;;;9.70;99.90;;;;;;5035497;28;20095;-84
2023/04/24 05:19:55;;;;;;;0.40;0.40;;;9.70;99.90;;;;;;5035056;28;19921;-85
2023/04/24 05:22:21;;;;;;;0.40;0.40;;;9.80;99.90;;;;;;5034896;28;20049;-83
2023/04/24 05:24:47;;;;;;;0.40;0.40;;;9.80;99.90;;;;;;5017721;28;20053;-84
2023/04/24 05:27:13;;;;;;;;;;;9.80;99.90;;;;;;5035492;28;20045;-83
2023/04/24 05:29:39;;;;;;;0.30;0.30;;;9.80;99.90;;;;;;5035743;28;20323;-84
2023/04/24 05:32:05;;;;;;;0.40;0.40;;;9.80;99.90;;;;;;5037399;28;20056;-83
2023/04/24 05:34:31;;;;;;;0.40;0.40;;;9.80;99.90;;;;;;5051584;28;20045;-83
2023/04/24 05:36:57;;;;;;;0.35;0.35;;;9.80;99.90;;;;;;5033810;28;20091;-84
2023/04/24 05:39:24;;;;;;;0.40;0.40;;;9.80;99.90;;;;;;5034245;28;20132;-84
2023/04/24 05:41:50;;;;;;;0.45;0.45;;;9.80;99.90;;;;;;5034470;28;20093;-85
2023/04/24 05:44:16;;;;;;;0.38;0.38;;;9.80;99.90;;;;;;5035340;28;20142;-84
2023/04/24 05:46:42;;;;;;;0.32;0.32;;;9.80;99.90;;;;;;5033922;28;20510;-83
2023/04/24 05:49:07;;;;;;;0.38;0.38;;;9.80;99.90;;;;;;5034840;28;20046;-83
2023/04/24 05:51:33;;;;;;;0.40;0.40;;;9.80;99.90;;;;;;5034418;28;20551;-83
2023/04/24 05:53:59;;;;;;;0.52;0.52;;;9.80;99.90;;;;;;5035333;28;20045;-84
2023/04/24 05:56:25;;;;;;;0.50;0.50;;;9.80;99.90;;;;;;5017307;28;20037;-83
2023/04/24 05:58:50;;;;;;;;;;;9.80;99.90;;;;;;5033327;28;20049;-84
2023/04/24 06:01:16;;;;;;;0.45;0.45;;;9.70;99.90;;;;;;5034176;28;20003;-84
2023/04/24 06:03:42;;;;;;;0.40;0.40;;;9.80;99.90;;;;;;5034073;28;20056;-84
2023/04/24 06:06:08;;;;;;;0.57;0.57;;;9.70;99.90;;;;;;5034141;28;20045;-86
2023/04/24 06:08:34;;;;;;;;;;;9.70;99.90;;;;;;5035209;28;20049;-84
2023/04/24 06:11:00;;;;;;;0.30;0.30;;;9.70;99.90;;;;;;5034547;28;19928;-85
2023/04/24 06:13:26;;;;;;;0.50;0.50;;;9.60;99.90;;;;;;5034150;28;20045;-84
2023/04/24 06:15:53;;;;;;;0.40;0.40;;;9.70;99.90;;;;;;5050653;28;20440;-83
2023/04/24 06:18:19;;;;;;;0.30;0.30;;;9.60;99.90;;;;;;5017527;28;20149;-83
2023/04/24 06:20:47;;;;;;;0.40;0.40;;;9.70;99.90;;;;;;5050346;28;20048;-84
2023/04/24 06:23:12;;;;;;;0.43;0.43;;;9.70;99.90;;;;;;5049989;28;20163;-82
2023/04/24 06:25:38;;;;;;;0.40;0.40;;;9.70;99.90;;;;;;5034068;28;20057;-82
2023/04/24 06:28:04;;;;;;;0.40;0.40;;;9.70;99.90;;;;;;5033616;28;20392;-84
2023/04/24 06:30:30;;;;;;;0.38;0.38;;;9.70;99.90;;;;;;5001177;28;20061;-84
2023/04/24 06:32:56;;;;;;;;;;;9.60;99.90;;;;;;5033913;28;20037;-83
2023/04/24 06:35:23;;;;;;;0.30;0.30;;;9.70;99.90;;;;;;5033829;28;19991;-82
2023/04/24 06:37:49;;;;;;;0.50;0.50;;;9.70;99.90;;;;;;5017251;28;20057;-84
2023/04/24 06:40:15;;;;;;;0.30;0.30;;;9.70;99.90;;;;;;5017401;28;20050;-82
2023/04/24 06:42:40;;;;;;;0.30;0.30;;;9.70;99.90;;;;;;5034172;28;20045;-80
2023/04/24 06:45:06;;;;;;;0.50;0.50;;;9.70;99.90;;;;;;5032562;28;20049;-83
2023/04/24 06:47:32;;;;;;;;;;;9.70;99.90;;;;;;5033458;28;20057;-82
2023/04/24 06:49:58;;;;;;;0.50;0.50;;;9.70;99.90;;;;;;5050162;28;20016;-83
2023/04/24 06:52:24;;;;;;;0.60;0.60;;;9.70;99.90;;;;;;5033353;28;20049;-82
2023/04/24 06:54:49;;;;;;;;;;;9.70;99.90;;;;;;5050441;28;20433;-82
2023/04/24 06:57:18;;;;;;;0.40;0.40;;;9.70;99.90;;;;;;5033724;28;19977;-81
2023/04/24 06:59:44;;;;;;;0.40;0.40;;;9.70;99.90;;;;;;5033298;28;20037;-82
2023/04/24 07:02:10;;;;;;;0.40;0.40;;;9.80;99.90;;;;;;5033142;28;20109;-82
2023/04/24 07:04:36;;;;;;;0.50;0.50;;;9.80;99.90;;;;;;5032991;28;20054;-80
2023/04/24 07:07:02;;;;;;;0.38;0.38;;;9.80;99.90;;;;;;5032343;28;20057;-82
2023/04/24 07:09:28;;;;;;;0.50;0.50;;;9.80;99.90;;;;;;5036293;28;20488;-82
2023/04/24 07:11:54;;;;;;;0.40;0.40;;;9.80;99.90;;;;;;5038585;28;20156;-83
2023/04/24 07:14:20;;;;;;;;;;;9.70;99.90;;;;;;5037300;28;20155;-83
2023/04/24 07:16:46;;;;;;;0.32;0.32;;;9.70;99.90;;;;;;5038707;28;19921;-83
2023/04/24 07:19:13;;;;;;;0.50;0.50;;;9.70;99.90;;;;;;5053718;28;20502;-83
2023/04/24 07:21:38;;;;;;;0.60;0.60;;;9.70;99.90;;;;;;5036103;28;20109;-82
2023/04/24 07:24:04;;;;;;;0.40;0.40;;;9.70;99.90;;;;;;5036315;28;20136;-81
2023/04/24 07:26:30;;;;;;;0.40;0.40;;;9.60;99.90;;;;;;5037986;28;20108;-82
2023/04/24 07:28:56;;;;;;;;;;;9.50;99.90;;;;;;5036994;28;20520;-83
2023/04/24 07:31:22;;;;;;;0.45;0.45;;;9.50;99.90;;;;;;5036453;28;19955;-83
2023/04/24 07:33:48;;;;;;;0.40;0.40;;;9.60;99.90;;;;;;5035653;28;20373;-82
2023/04/24 07:36:18;;;;;;;0.45;0.45;;;9.50;99.90;;;;;;5037612;28;20099;-80
2023/04/24 07:38:45;;;;;;;0.40;0.40;;;9.50;99.90;;;;;;5035976;28;20049;-81
2023/04/24 07:41:12;;;;;;;0.40;0.40;;;9.50;99.90;;;;;;5037296;28;20132;-82
2023/04/24 07:43:37;;;;;;;0.40;0.40;;;9.40;99.90;;;;;;5035888;28;20549;-82
2023/04/24 07:46:03;;;;;;;0.35;0.35;;;9.40;99.90;;;;;;5035850;28;20069;-82
2023/04/24 07:48:29;;;;;;;0.20;0.20;;;9.40;99.90;;;;;;5052680;28;20053;-83
2023/04/24 07:50:55;;;;;;;0.52;0.52;;;9.40;99.90;;;;;;5035782;28;20361;-81
2023/04/24 07:53:20;;;;;;;0.40;0.40;;;9.40;99.90;;;;;;5051788;28;20053;-82
2023/04/24 07:55:46;;;;;;;0.45;0.45;;;9.50;99.90;;;;;;5036134;28;20065;-81
2023/04/24 07:58:12;;;;;;;0.50;0.50;;;9.50;99.90;;;;;;5035886;28;20049;-82
2023/04/24 08:00:37;;;;;;;0.50;0.50;;;9.40;99.90;;;;;;5037314;28;20092;-82
2023/04/24 08:03:03;;;;;;;0.60;0.60;;;9.40;99.90;;;;;;5035724;28;20108;-82
2023/04/24 08:05:29;;;;;;;0.35;0.35;;;9.30;99.90;;;;;;5036313;28;20057;-80
2023/04/24 08:07:56;;;;;;;0.47;0.47;;;9.30;99.90;;;;;;5036255;28;20107;-82
2023/04/24 08:10:23;;;;;;;0.40;0.40;;;9.30;99.90;;;;;;5052424;28;20107;-82
2023/04/24 08:12:48;;;;;;;0.50;0.50;;;9.30;99.90;;;;;;5037205;28;20526;-83
2023/04/24 08:15:14;;;;;;;0.55;0.55;;;9.30;99.90;;;;;;5019265;28;20038;-82
2023/04/24 08:17:40;;;;;;;0.40;0.40;;;9.20;99.90;;;;;;5052821;28;20045;-81
2023/04/24 08:20:13;;;;;;;0.40;0.40;;;9.20;99.90;;;;;;5034867;28;20057;-80
2023/04/24 08:22:40;;;;;;;0.45;0.45;;;9.20;99.90;;;;;;5052662;28;20045;-82
2023/04/24 08:25:06;;;;;;;0.50;0.50;;;9.20;99.90;;;;;;5037051;28;20488;-83
2023/04/24 08:27:32;;;;;;;0.47;0.47;;;9.20;99.90;;;;;;5037697;28;20076;-84
2023/04/24 08:29:59;;;;;;;0.35;0.35;;;9.20;99.90;;;;;;5037070;28;20465;-83
2023/04/24 08:32:27;;;;;;;0.47;0.47;;;9.20;99.90;;;;;;5020507;28;20049;-84
2023/04/24 08:34:53;;;;;;;0.30;0.30;;;9.10;99.90;;;;;;5036538;28;20457;-84
2023/04/24 08:37:19;;;;;;;0.50;0.50;;;9.10;99.90;;;;;;5037276;28;20041;-82
2023/04/24 08:39:45;;;;;;;0.50;0.50;;;9.10;99.90;;;;;;5051882;28;20154;-84
2023/04/24 08:42:12;;;;;;;0.40;0.40;;;9.10;99.90;;;;;;5036249;28;20045;-82
2023/04/24 08:44:39;;;;;;;0.30;0.30;;;9.10;99.90;;;;;;5036794;28;20508;-86
2023/04/24 08:47:05;;;;;;;;;;;9.10;99.90;;;;;;5019827;28;20049;-84
2023/04/24 08:49:31;;;;;;;0.43;0.43;;;9.00;99.90;;;;;;5035422;28;19921;-84
2023/04/24 08:51:57;;;;;;;;;;;8.90;99.90;;;;;;5036292;28;20059;-85
2023/04/24 08:54:23;;;;;;;0.50;0.50;;;8.90;99.90;;;;;;5035375;28;19924;-81
2023/04/24 08:56:50;;;;;;;0.40;0.40;;;8.90;99.90;;;;;;5035895;28;20107;-82
2023/04/24 08:59:16;;;;;;;0.50;0.50;;;8.80;99.90;;;;;;5035582;28;20049;-85
2023/04/24 09:01:42;;;;;;;0.55;0.55;;;8.70;99.90;;;;;;5019603;28;20057;-80
2023/04/24 09:04:10;;;;;;;0.65;0.65;;;8.60;99.90;;;;;;5051918;28;20064;-84
2023/04/24 09:06:36;;;;;;;0.50;0.50;;;8.60;99.90;;;;;;5052185;28;20052;-84
2023/04/24 09:09:06;;;;;;;0.50;0.50;;;8.60;99.90;;;;;;5053832;28;20096;-84
2023/04/24 09:11:35;;;;;;;0.40;0.40;;;8.60;99.90;;;;;;5051387;28;20053;-83
2023/04/24 09:14:01;;;;;;;0.50;0.50;;;8.50;99.90;;;;;;5034877;28;20045;-84
2023/04/24 09:16:27;;;;;;;0.40;0.40;;;8.50;99.90;;;;;;5034367;28;20041;-82
2023/04/24 09:18:53;;;;;;;0.40;0.40;;;8.50;99.90;;;;;;5036489;28;20102;-86
2023/04/24 09:21:23;;;;;;;0.43;0.43;;;8.60;99.90;;;;;;5035936;28;20073;-84
2023/04/24 09:23:59;;;;;;;0.68;0.68;;;8.60;99.90;;;;;;5035696;28;20431;-85
2023/04/24 09:26:25;;;;;;;0.55;0.55;;;8.60;99.90;;;;;;5051717;28;20140;-81
2023/04/24 09:28:51;;;;;;;0.57;0.57;;;8.70;99.90;;;;;;5051420;28;20085;-83
2023/04/24 09:31:21;;;;;;;0.50;0.50;;;8.70;99.90;;;;;;5034724;28;20449;-85
2023/04/24 09:34:08;;;;;;;0.43;0.43;;;8.70;99.90;;;;;;5033599;28;20128;-84
2023/04/24 09:36:37;;;;;;;1.20;1.08;;;8.80;99.90;;;;;;5036072;28;20045;-82
2023/04/24 09:39:06;;;;;;;0.50;0.50;;;8.80;99.90;;;;;;5017911;28;20499;-81
2023/04/24 09:41:32;;;;;;;0.40;0.40;;;8.80;99.90;;;;;;5033821;28;20337;-85
2023/04/24 09:44:19;;;;;;;0.90;0.90;;;8.80;99.90;;;;;;5034591;28;20481;-84
2023/04/24 09:46:49;;;;;;;0.40;0.40;;;8.80;99.90;;;;;;5034181;28;20041;-83
2023/04/24 09:49:16;;;;;;;0.40;0.40;;;8.80;99.90;;;;;;5033713;28;20081;-83
2023/04/24 09:51:43;;;;;;;0.50;0.50;;;8.70;99.90;;;;;;5017719;28;20128;-81
2023/04/24 09:54:20;;;;;;;0.40;0.40;;;8.60;99.90;;;;;;5018219;28;20152;-86
2023/04/24 09:56:48;;;;;;;0.35;0.35;;;8.60;99.90;;;;;;5034340;28;20041;-84
2023/04/24 09:59:15;;;;;;;0.50;0.50;;;8.70;99.90;;;;;;5034737;28;20132;-84
2023/04/24 10:01:42;;;;;;;0.40;0.40;;;8.60;99.90;;;;;;5034310;28;20057;-84
2023/04/24 10:04:23;;;;;;;0.50;0.50;;;8.80;99.90;;;;;;5034288;28;20132;-84
2023/04/24 10:06:50;;;;;;;0.50;0.50;;;8.90;99.90;;;;;;5034784;28;20151;-82
2023/04/24 10:09:24;;;;;;;0.50;0.50;;;9.10;99.90;;;;;;5035774;28;20041;-83
2023/04/24 10:11:53;;;;;;;0.30;0.30;;;9.20;99.90;;;;;;5050912;28;20041;-84
2023/04/24 10:14:20;;;;;;;1.05;0.95;;;9.40;99.90;;;;;;5035224;28;20496;-83
2023/04/24 10:16:47;;;;;;;0.57;0.57;;;9.50;99.90;;;;;;5034605;28;20033;-84
2023/04/24 10:19:13;;;;;;;;;;;9.70;99.90;;;;;;5051172;28;20132;-84
2023/04/24 10:21:42;;;;;;;0.47;0.47;;;9.80;99.90;;;;;;5050698;28;20003;-84
2023/04/24 10:24:10;;;;;;;0.40;0.40;;;10.00;99.90;;;;;;5032512;28;20558;-83
2023/04/24 10:26:37;;;;;;;0.45;0.45;;;10.10;99.90;;;;;;5049310;28;20061;-83
2023/04/24 10:29:09;;;;;;;1.05;1.05;;;9.70;99.90;;;;;;5033742;28;20045;-84
2023/04/24 10:31:37;;;;;;;0.60;0.60;;;10.30;99.90;;;;;;5035619;28;20052;-82
2023/04/24 10:34:04;;;;;;;5.25;2.78;;;10.40;99.90;;;;;;5051472;28;20083;-86
2023/04/24 10:36:32;;;;;;;0.50;0.50;;;10.50;99.90;;;;;;5035574;28;20353;-86
2023/04/24 10:39:00;;;;;;;0.40;0.40;;;10.60;99.90;;;;;;5033557;28;20045;-82
2023/04/24 10:41:26;;;;;;;0.77;0.77;;;10.60;99.90;;;;;;5034257;28;20057;-83
2023/04/24 10:44:05;;;;;;;0.80;0.80;;;10.60;99.90;;;;;;5052179;28;20120;-84
2023/04/24 10:46:30;;;;;;;2.25;2.13;;;10.50;99.90;;;;;;5038498;28;20330;-84
2023/04/24 10:48:58;;;;;;;0.60;0.60;;;10.60;99.90;;;;;;5038263;28;20040;-86
2023/04/24 10:51:42;;;;;;;0.55;0.55;;;10.60;99.90;;;;;;5038661;28;20085;-86
2023/04/24 10:54:57;;;;;;;0.50;0.40;;;10.60;99.90;;;;;;5038739;28;20057;-85
2023/04/24 10:57:30;;;;;;;0.40;0.40;;;10.60;99.90;;;;;;4978555;28;20065;-83
2023/04/24 11:00:19;;;;;;;0.40;0.40;;;10.70;99.90;;;;;;5053340;28;20052;-83
2023/04/24 11:02:52;;;;;;;0.40;0.40;;;10.70;99.90;;;;;;5053739;28;20116;-86
2023/04/24 11:05:19;;;;;;;0.40;0.40;;;10.70;99.90;;;;;;5036475;28;20364;-87
2023/04/24 11:08:11;;;;;;;0.50;0.50;;;10.70;99.90;;;;;;5038292;28;20111;-84
2023/04/24 11:10:44;;;;;;;2.45;2.30;;;10.70;99.90;;;;;;5038272;28;20049;-84
2023/04/24 11:13:10;;;;;;;0.50;0.50;;;10.60;99.90;;;;;;5022000;28;20059;-84
2023/04/24 11:15:36;;;;;;;0.75;0.75;;;10.70;99.90;;;;;;5037865;28;20046;-83
2023/04/24 11:18:02;;;;;;;0.40;0.40;;;10.60;99.90;;;;;;5037757;28;20057;-85
2023/04/24 11:20:28;;;;;;;0.30;0.30;;;10.60;99.90;;;;;;5039123;28;20088;-85
2023/04/24 11:22:55;;;;;;;0.52;0.52;;;10.40;99.90;;;;;;5038267;28;20049;-86
2023/04/24 11:25:22;;;;;;;0.43;0.43;;;10.30;99.90;;;;;;5037529;28;20119;-87
2023/04/24 11:27:49;;;;;;;0.60;0.60;;;10.30;99.90;;;;;;5053613;28;20054;-85
2023/04/24 11:30:20;;;;;;;0.40;0.40;;;10.20;99.90;;;;;;5037353;28;20106;-86
2023/04/24 11:32:51;;;;;;;0.30;0.30;;;10.30;99.90;;;;;;5053678;28;20053;-86
2023/04/24 11:35:19;;;;;;;0.55;0.55;;;10.20;99.90;;;;;;5037296;28;20053;-82
2023/04/24 11:37:46;;;;;;;0.40;0.40;;;10.20;99.90;;;;;;5038897;28;20492;-84
2023/04/24 11:40:17;;;;;;;0.65;0.65;;;10.10;99.90;;;;;;5053821;28;20190;-86
2023/04/24 11:42:44;;;;;;;0.63;0.63;;;10.00;99.90;;;;;;5037324;28;20499;-80
2023/04/24 11:45:18;;;;;;;0.40;0.40;;;9.90;99.90;;;;;;5035914;28;20056;-86
2023/04/24 11:47:44;;;;;;;0.40;0.40;;;9.80;99.90;;;;;;5052642;28;20144;-86
2023/04/24 11:50:15;;;;;;;0.73;0.73;;;9.70;99.90;;;;;;5036170;28;20054;-84
2023/04/24 11:52:43;;;;;;;0.50;0.50;;;9.80;99.90;;;;;;5036635;28;20124;-79
2023/04/24 11:55:15;;;;;;;1.48;0.60;;;9.80;99.90;;;;;;5052003;28;20050;-83
2023/04/24 11:57:45;;;;;;;0.30;0.30;;;9.80;99.90;;;;;;5041656;28;20049;-82
2023/04/24 12:00:19;;;;;;;0.47;0.47;;;9.80;99.90;;;;;;5038355;28;20095;-85
2023/04/24 12:02:45;;;;;;;0.60;0.60;;;9.80;99.90;;;;;;5053246;28;20073;-84
2023/04/24 12:05:21;;;;;;;0.50;0.50;;;9.80;99.90;;;;;;5035835;28;20052;-84
2023/04/24 12:07:47;;;;;;;0.30;0.30;;;9.70;99.90;;;;;;5036829;28;20088;-86
2023/04/24 12:10:13;;;;;;;0.43;0.43;;;9.70;99.90;;;;;;5036445;28;20084;-83
2023/04/24 12:12:39;;;;;;;0.50;0.50;;;9.60;99.90;;;;;;5035693;28;20065;-85
2023/04/24 12:15:08;;;;;;;0.60;0.60;;;9.60;99.90;;;;;;5035970;28;20050;-84
2023/04/24 12:17:36;;;;;;;0.35;0.35;;;9.50;99.90;;;;;;5035688;28;20054;-84
2023/04/24 12:20:04;;;;;;;0.60;0.60;;;9.50;99.90;;;;;;5051151;28;20498;-82
2023/04/24 12:22:50;;;;;;;0.50;0.50;;;9.50;99.90;;;;;;5035123;28;20053;-85
2023/04/24 12:25:18;;;;;;;0.40;0.40;;;9.60;99.90;;;;;;5019136;28;20476;-84
2023/04/24 12:27:45;;;;;;;0.60;0.60;;;9.70;99.90;;;;;;5035404;28;20065;-82
2023/04/24 12:30:15;;;;;;;0.30;0.30;;;9.80;99.90;;;;;;5037406;28;20048;-81
2023/04/24 12:32:43;;;;;;;0.30;0.30;;;9.90;99.90;;;;;;5045058;28;20072;-83
2023/04/24 12:35:09;;;;;;;0.50;0.50;;;10.10;99.90;;;;;;5054699;28;20046;-87
2023/04/24 12:37:36;;;;;;;0.60;0.60;;;10.10;99.90;;;;;;5039695;28;20128;-84
2023/04/24 12:40:08;;;;;;;0.43;0.43;;;10.30;99.90;;;;;;5054541;28;20444;-86
2023/04/24 12:42:35;;;;;;;0.30;0.30;;;10.50;99.90;;;;;;5035872;28;20128;-85
2023/04/24 12:45:04;;;;;;;0.50;0.50;;;10.60;99.90;;;;;;5035051;28;20107;-84
2023/04/24 12:47:31;;;;;;;0.40;0.40;;;10.70;99.90;;;;;;5036215;28;20053;-83
2023/04/24 12:49:57;;;;;;;0.40;0.40;;;10.60;99.90;;;;;;5035121;28;20049;-83
2023/04/24 12:52:23;;;;;;;0.40;0.40;;;10.50;99.90;;;;;;5036037;28;20052;-82
2023/04/24 12:54:54;;;;;;;0.40;0.40;;;10.40;99.90;;;;;;5051085;28;20049;-82
2023/04/24 12:57:20;;;;;;;0.40;0.40;;;10.30;99.90;;;;;;5034343;28;20431;-81